sensor_id;sensor_type;location;lat;lon;timestamp;P1;durP1;ratioP1;P2;durP2;ratioP2
13014;SDS011;6573;57.696;11.950;2023-04-24T00:01:40;22.43;;;16.47;;
13014;SDS011;6573;57.696;11.950;2023-04-24T00:04:09;24.63;;;20.77;;
13014;SDS011;6573;57.696;11.950;2023-04-24T00:06:40;26.23;;;16.70;;
13014;SDS011;6573;57.696;11.950;2023-04-24T00:09:09;22.00;;;15.90;;
13014;SDS011;6573;57.696;11.950;2023-04-24T00:11:37;24.37;;;15.93;;
13014;SDS011;6573;57.696;11.950;2023-04-24T00:14:06;21.60;;;15.43;;
13014;SDS011;6573;57.696;11.950;2023-04-24T00:16:34;24.40;;;17.27;;
13014;SDS011;6573;57.696;11.950;2023-04-24T00:19:03;21.43;;;15.30;;
13014;SDS011;6573;57.696;11.950;2023-04-24T00:21:32;23.47;;;15.93;;
13014;SDS011;6573;57.696;11.950;2023-04-24T00:24:00;22.33;;;14.90;;
13014;SDS011;6573;57.696;11.950;2023-04-24T00:26:28;24.13;;;16.63;;
13014;SDS011;6573;57.696;11.950;2023-04-24T00:28:57;21.83;;;15.20;;
13014;SDS011;6573;57.696;11.950;2023-04-24T00:31:25;23.57;;;15.67;;
13014;SDS011;6573;57.696;11.950;2023-04-24T00:33:53;21.93;;;15.73;;
13014;SDS011;6573;57.696;11.950;2023-04-24T00:36:23;23.07;;;15.43;;
13014;SDS011;6573;57.696;11.950;2023-04-24T00:38:51;22.43;;;15.80;;
13014;SDS011;6573;57.696;11.950;2023-04-24T00:41:20;22.60;;;15.90;;
13014;SDS011;6573;57.696;11.950;2023-04-24T00:43:49;26.57;;;16.33;;
13014;SDS011;6573;57.696;11.950;2023-04-24T00:46:18;24.53;;;15.93;;
13014;SDS011;6573;57.696;11.950;2023-04-24T00:48:47;21.60;;;15.33;;
13014;SDS011;6573;57.696;11.950;2023-04-24T00:51:15;21.97;;;15.80;;
13014;SDS011;6573;57.696;11.950;2023-04-24T00:53:45;22.97;;;15.23;;
13014;SDS011;6573;57.696;11.950;2023-04-24T00:56:13;22.97;;;15.27;;
13014;SDS011;6573;57.696;11.950;2023-04-24T00:58:42;22.77;;;16.53;;
13014;SDS011;6573;57.696;11.950;2023-04-24T01:01:10;22.63;;;20.23;;
13014;SDS011;6573;57.696;11.950;2023-04-24T01:03:39;24.30;;;20.63;;
13014;SDS011;6573;57.696;11.950;2023-04-24T01:06:09;24.17;;;20.20;;
13014;SDS011;6573;57.696;11.950;2023-04-24T01:08:38;27.53;;;20.00;;
13014;SDS011;6573;57.696;11.950;2023-04-24T01:11:08;23.33;;;15.57;;
13014;SDS011;6573;57.696;11.950;2023-04-24T01:13:37;21.30;;;14.90;;
13014;SDS011;6573;57.696;11.950;2023-04-24T01:16:05;21.83;;;14.73;;
13014;SDS011;6573;57.696;11.950;2023-04-24T01:18:33;21.33;;;15.33;;
13014;SDS011;6573;57.696;11.950;2023-04-24T01:21:02;22.10;;;15.27;;
13014;SDS011;6573;57.696;11.950;2023-04-24T01:23:33;20.23;;;15.37;;
13014;SDS011;6573;57.696;11.950;2023-04-24T01:26:04;21.67;;;19.20;;
13014;SDS011;6573;57.696;11.950;2023-04-24T01:28:32;20.40;;;14.97;;
13014;SDS011;6573;57.696;11.950;2023-04-24T01:31:01;20.10;;;15.43;;
13014;SDS011;6573;57.696;11.950;2023-04-24T01:33:29;20.90;;;14.90;;
13014;SDS011;6573;57.696;11.950;2023-04-24T01:35:57;20.87;;;15.60;;
13014;SDS011;6573;57.696;11.950;2023-04-24T01:38:26;22.53;;;15.17;;
13014;SDS011;6573;57.696;11.950;2023-04-24T01:40:55;25.43;;;14.63;;
13014;SDS011;6573;57.696;11.950;2023-04-24T01:43:23;20.90;;;14.53;;
13014;SDS011;6573;57.696;11.950;2023-04-24T01:45:52;18.73;;;14.53;;
13014;SDS011;6573;57.696;11.950;2023-04-24T01:48:23;22.60;;;18.90;;
13014;SDS011;6573;57.696;11.950;2023-04-24T01:50:51;19.13;;;13.87;;
13014;SDS011;6573;57.696;11.950;2023-04-24T01:53:19;20.73;;;14.20;;
13014;SDS011;6573;57.696;11.950;2023-04-24T01:55:48;19.67;;;14.37;;
13014;SDS011;6573;57.696;11.950;2023-04-24T01:58:17;20.03;;;14.10;;
13014;SDS011;6573;57.696;11.950;2023-04-24T02:00:45;20.40;;;14.23;;
13014;SDS011;6573;57.696;11.950;2023-04-24T02:03:14;23.43;;;14.87;;
13014;SDS011;6573;57.696;11.950;2023-04-24T02:05:43;20.63;;;18.17;;
13014;SDS011;6573;57.696;11.950;2023-04-24T02:08:11;21.63;;;14.60;;
13014;SDS011;6573;57.696;11.950;2023-04-24T02:10:40;22.33;;;17.60;;
13014;SDS011;6573;57.696;11.950;2023-04-24T02:13:08;21.10;;;14.23;;
13014;SDS011;6573;57.696;11.950;2023-04-24T02:15:37;20.27;;;17.80;;
13014;SDS011;6573;57.696;11.950;2023-04-24T02:18:06;21.23;;;19.00;;
13014;SDS011;6573;57.696;11.950;2023-04-24T02:20:34;24.97;;;18.20;;
13014;SDS011;6573;57.696;11.950;2023-04-24T02:23:02;21.20;;;14.13;;
13014;SDS011;6573;57.696;11.950;2023-04-24T02:25:31;19.30;;;13.80;;
13014;SDS011;6573;57.696;11.950;2023-04-24T02:27:59;17.67;;;13.60;;
13014;SDS011;6573;57.696;11.950;2023-04-24T02:30:27;20.60;;;14.07;;
13014;SDS011;6573;57.696;11.950;2023-04-24T02:32:57;20.43;;;13.93;;
13014;SDS011;6573;57.696;11.950;2023-04-24T02:35:25;18.30;;;14.07;;
13014;SDS011;6573;57.696;11.950;2023-04-24T02:37:53;18.47;;;13.37;;
13014;SDS011;6573;57.696;11.950;2023-04-24T02:40:22;18.83;;;13.57;;
13014;SDS011;6573;57.696;11.950;2023-04-24T02:42:50;18.60;;;13.53;;
13014;SDS011;6573;57.696;11.950;2023-04-24T02:45:18;18.03;;;12.77;;
13014;SDS011;6573;57.696;11.950;2023-04-24T02:47:46;18.50;;;13.30;;
13014;SDS011;6573;57.696;11.950;2023-04-24T02:50:16;19.63;;;14.10;;
13014;SDS011;6573;57.696;11.950;2023-04-24T02:52:44;18.10;;;13.40;;
13014;SDS011;6573;57.696;11.950;2023-04-24T02:55:13;18.00;;;13.37;;
13014;SDS011;6573;57.696;11.950;2023-04-24T02:57:41;19.50;;;13.73;;
13014;SDS011;6573;57.696;11.950;2023-04-24T03:00:10;20.43;;;13.23;;
13014;SDS011;6573;57.696;11.950;2023-04-24T03:02:39;19.87;;;15.80;;
13014;SDS011;6573;57.696;11.950;2023-04-24T03:05:07;19.70;;;15.23;;
13014;SDS011;6573;57.696;11.950;2023-04-24T03:07:39;18.90;;;13.63;;
13014;SDS011;6573;57.696;11.950;2023-04-24T03:10:08;18.13;;;13.53;;
13014;SDS011;6573;57.696;11.950;2023-04-24T03:12:37;16.77;;;13.10;;
13014;SDS011;6573;57.696;11.950;2023-04-24T03:15:05;21.53;;;17.57;;
13014;SDS011;6573;57.696;11.950;2023-04-24T03:17:35;19.87;;;17.73;;
13014;SDS011;6573;57.696;11.950;2023-04-24T03:20:03;19.50;;;13.67;;
13014;SDS011;6573;57.696;11.950;2023-04-24T03:22:33;22.00;;;14.47;;
13014;SDS011;6573;57.696;11.950;2023-04-24T03:25:03;20.13;;;14.47;;
13014;SDS011;6573;57.696;11.950;2023-04-24T03:27:32;19.77;;;12.90;;
13014;SDS011;6573;57.696;11.950;2023-04-24T03:30:01;19.43;;;16.97;;
13014;SDS011;6573;57.696;11.950;2023-04-24T03:32:29;22.10;;;17.17;;
13014;SDS011;6573;57.696;11.950;2023-04-24T03:34:58;19.13;;;14.30;;
13014;SDS011;6573;57.696;11.950;2023-04-24T03:37:27;21.13;;;16.43;;
13014;SDS011;6573;57.696;11.950;2023-04-24T03:39:55;17.77;;;12.60;;
13014;SDS011;6573;57.696;11.950;2023-04-24T03:42:24;17.47;;;13.07;;
13014;SDS011;6573;57.696;11.950;2023-04-24T03:44:53;18.13;;;13.90;;
13014;SDS011;6573;57.696;11.950;2023-04-24T03:47:22;17.97;;;13.03;;
13014;SDS011;6573;57.696;11.950;2023-04-24T03:49:50;19.67;;;16.30;;
13014;SDS011;6573;57.696;11.950;2023-04-24T03:52:20;19.60;;;15.43;;
13014;SDS011;6573;57.696;11.950;2023-04-24T03:54:48;17.73;;;12.73;;
13014;SDS011;6573;57.696;11.950;2023-04-24T03:57:16;15.83;;;12.27;;
13014;SDS011;6573;57.696;11.950;2023-04-24T03:59:46;17.13;;;12.70;;
13014;SDS011;6573;57.696;11.950;2023-04-24T04:02:14;17.37;;;12.57;;
13014;SDS011;6573;57.696;11.950;2023-04-24T04:04:42;17.00;;;12.10;;
13014;SDS011;6573;57.696;11.950;2023-04-24T04:07:11;19.33;;;12.33;;
13014;SDS011;6573;57.696;11.950;2023-04-24T04:09:40;17.63;;;12.53;;
13014;SDS011;6573;57.696;11.950;2023-04-24T04:12:08;18.53;;;15.23;;
13014;SDS011;6573;57.696;11.950;2023-04-24T04:14:36;18.03;;;15.60;;
13014;SDS011;6573;57.696;11.950;2023-04-24T04:17:06;18.13;;;15.17;;
13014;SDS011;6573;57.696;11.950;2023-04-24T04:19:34;17.23;;;15.43;;
13014;SDS011;6573;57.696;11.950;2023-04-24T04:22:02;17.57;;;15.23;;
13014;SDS011;6573;57.696;11.950;2023-04-24T04:24:31;16.93;;;11.93;;
13014;SDS011;6573;57.696;11.950;2023-04-24T04:26:59;17.57;;;13.13;;
13014;SDS011;6573;57.696;11.950;2023-04-24T04:29:27;17.20;;;12.50;;
13014;SDS011;6573;57.696;11.950;2023-04-24T04:31:55;14.97;;;11.87;;
13014;SDS011;6573;57.696;11.950;2023-04-24T04:34:25;18.80;;;11.57;;
13014;SDS011;6573;57.696;11.950;2023-04-24T04:36:54;16.47;;;11.40;;
13014;SDS011;6573;57.696;11.950;2023-04-24T04:39:22;20.13;;;12.13;;
13014;SDS011;6573;57.696;11.950;2023-04-24T04:41:51;17.27;;;12.00;;
13014;SDS011;6573;57.696;11.950;2023-04-24T04:44:19;15.57;;;11.63;;
13014;SDS011;6573;57.696;11.950;2023-04-24T04:46:47;16.57;;;11.83;;
13014;SDS011;6573;57.696;11.950;2023-04-24T04:49:16;15.83;;;11.27;;
13014;SDS011;6573;57.696;11.950;2023-04-24T04:51:46;16.23;;;10.93;;
13014;SDS011;6573;57.696;11.950;2023-04-24T04:54:15;16.50;;;11.23;;
13014;SDS011;6573;57.696;11.950;2023-04-24T04:56:43;21.13;;;11.77;;
13014;SDS011;6573;57.696;11.950;2023-04-24T04:59:11;17.17;;;11.80;;
13014;SDS011;6573;57.696;11.950;2023-04-24T05:01:40;18.40;;;11.63;;
13014;SDS011;6573;57.696;11.950;2023-04-24T05:04:08;18.27;;;11.37;;
13014;SDS011;6573;57.696;11.950;2023-04-24T05:06:36;13.63;;;10.57;;
13014;SDS011;6573;57.696;11.950;2023-04-24T05:09:06;16.17;;;11.43;;
13014;SDS011;6573;57.696;11.950;2023-04-24T05:11:34;16.03;;;10.30;;
13014;SDS011;6573;57.696;11.950;2023-04-24T05:14:03;18.23;;;11.27;;
13014;SDS011;6573;57.696;11.950;2023-04-24T05:16:31;17.43;;;11.10;;
13014;SDS011;6573;57.696;11.950;2023-04-24T05:18:59;18.87;;;12.17;;
13014;SDS011;6573;57.696;11.950;2023-04-24T05:21:27;14.33;;;10.53;;
13014;SDS011;6573;57.696;11.950;2023-04-24T05:23:57;14.43;;;11.40;;
13014;SDS011;6573;57.696;11.950;2023-04-24T05:26:26;15.87;;;11.00;;
13014;SDS011;6573;57.696;11.950;2023-04-24T05:28:55;16.53;;;10.20;;
13014;SDS011;6573;57.696;11.950;2023-04-24T05:31:23;14.00;;;9.93;;
13014;SDS011;6573;57.696;11.950;2023-04-24T05:33:52;14.97;;;10.73;;
13014;SDS011;6573;57.696;11.950;2023-04-24T05:36:20;20.47;;;10.97;;
13014;SDS011;6573;57.696;11.950;2023-04-24T05:38:53;16.20;;;9.93;;
13014;SDS011;6573;57.696;11.950;2023-04-24T05:41:22;16.10;;;10.57;;
13014;SDS011;6573;57.696;11.950;2023-04-24T05:43:53;13.70;;;10.07;;
13014;SDS011;6573;57.696;11.950;2023-04-24T05:46:21;14.43;;;10.57;;
13014;SDS011;6573;57.696;11.950;2023-04-24T05:48:49;14.73;;;10.57;;
13014;SDS011;6573;57.696;11.950;2023-04-24T05:51:18;14.03;;;9.73;;
13014;SDS011;6573;57.696;11.950;2023-04-24T05:53:46;16.60;;;11.10;;
13014;SDS011;6573;57.696;11.950;2023-04-24T05:56:15;19.40;;;10.47;;
13014;SDS011;6573;57.696;11.950;2023-04-24T05:58:43;13.83;;;10.70;;
13014;SDS011;6573;57.696;11.950;2023-04-24T06:01:14;17.03;;;10.63;;
13014;SDS011;6573;57.696;11.950;2023-04-24T06:03:43;13.83;;;9.90;;
13014;SDS011;6573;57.696;11.950;2023-04-24T06:06:11;15.93;;;10.50;;
13014;SDS011;6573;57.696;11.950;2023-04-24T06:08:39;14.77;;;10.13;;
13014;SDS011;6573;57.696;11.950;2023-04-24T06:11:09;15.40;;;9.30;;
13014;SDS011;6573;57.696;11.950;2023-04-24T06:13:37;13.47;;;10.10;;
13014;SDS011;6573;57.696;11.950;2023-04-24T06:16:06;19.90;;;10.20;;
13014;SDS011;6573;57.696;11.950;2023-04-24T06:18:35;13.63;;;10.20;;
13014;SDS011;6573;57.696;11.950;2023-04-24T06:21:03;15.57;;;9.90;;
13014;SDS011;6573;57.696;11.950;2023-04-24T06:23:32;12.93;;;10.40;;
13014;SDS011;6573;57.696;11.950;2023-04-24T06:26:00;15.87;;;10.20;;
13014;SDS011;6573;57.696;11.950;2023-04-24T06:28:29;15.53;;;10.20;;
13014;SDS011;6573;57.696;11.950;2023-04-24T06:30:57;13.97;;;10.07;;
13014;SDS011;6573;57.696;11.950;2023-04-24T06:33:25;14.20;;;10.10;;
13014;SDS011;6573;57.696;11.950;2023-04-24T06:35:55;14.07;;;9.57;;
13014;SDS011;6573;57.696;11.950;2023-04-24T06:38:23;14.40;;;9.13;;
13014;SDS011;6573;57.696;11.950;2023-04-24T06:40:52;13.87;;;9.17;;
13014;SDS011;6573;57.696;11.950;2023-04-24T06:43:20;20.87;;;10.53;;
13014;SDS011;6573;57.696;11.950;2023-04-24T06:45:48;12.87;;;9.53;;
13014;SDS011;6573;57.696;11.950;2023-04-24T06:48:16;14.10;;;9.87;;
13014;SDS011;6573;57.696;11.950;2023-04-24T06:50:44;13.97;;;9.77;;
13014;SDS011;6573;57.696;11.950;2023-04-24T06:53:14;12.70;;;9.83;;
13014;SDS011;6573;57.696;11.950;2023-04-24T06:55:43;15.70;;;9.70;;
13014;SDS011;6573;57.696;11.950;2023-04-24T06:58:12;13.27;;;9.53;;
13014;SDS011;6573;57.696;11.950;2023-04-24T07:00:41;13.37;;;8.57;;
13014;SDS011;6573;57.696;11.950;2023-04-24T07:03:09;11.50;;;9.07;;
13014;SDS011;6573;57.696;11.950;2023-04-24T07:05:38;11.80;;;9.20;;
13014;SDS011;6573;57.696;11.950;2023-04-24T07:08:06;14.07;;;8.87;;
13014;SDS011;6573;57.696;11.950;2023-04-24T07:10:36;15.53;;;9.27;;
13014;SDS011;6573;57.696;11.950;2023-04-24T07:13:05;12.47;;;9.70;;
13014;SDS011;6573;57.696;11.950;2023-04-24T07:15:33;13.63;;;8.90;;
13014;SDS011;6573;57.696;11.950;2023-04-24T07:18:01;11.70;;;9.57;;
13014;SDS011;6573;57.696;11.950;2023-04-24T07:20:31;12.47;;;8.87;;
13014;SDS011;6573;57.696;11.950;2023-04-24T07:22:59;12.10;;;9.30;;
13014;SDS011;6573;57.696;11.950;2023-04-24T07:25:28;12.27;;;8.93;;
13014;SDS011;6573;57.696;11.950;2023-04-24T07:27:57;16.53;;;9.53;;
13014;SDS011;6573;57.696;11.950;2023-04-24T07:30:25;12.63;;;8.70;;
13014;SDS011;6573;57.696;11.950;2023-04-24T07:32:55;12.43;;;10.23;;
13014;SDS011;6573;57.696;11.950;2023-04-24T07:35:24;16.00;;;10.03;;
13014;SDS011;6573;57.696;11.950;2023-04-24T07:37:52;14.37;;;10.67;;
13014;SDS011;6573;57.696;11.950;2023-04-24T07:40:21;13.90;;;9.47;;
13014;SDS011;6573;57.696;11.950;2023-04-24T07:42:50;12.73;;;9.17;;
13014;SDS011;6573;57.696;11.950;2023-04-24T07:45:19;13.13;;;9.67;;
13014;SDS011;6573;57.696;11.950;2023-04-24T07:47:50;12.83;;;9.13;;
13014;SDS011;6573;57.696;11.950;2023-04-24T07:50:18;14.93;;;9.93;;
13014;SDS011;6573;57.696;11.950;2023-04-24T07:52:47;12.17;;;9.70;;
13014;SDS011;6573;57.696;11.950;2023-04-24T07:55:15;15.00;;;10.10;;
13014;SDS011;6573;57.696;11.950;2023-04-24T07:57:47;14.33;;;9.47;;
13014;SDS011;6573;57.696;11.950;2023-04-24T08:00:16;16.10;;;9.97;;
13014;SDS011;6573;57.696;11.950;2023-04-24T08:02:46;14.07;;;10.00;;
13014;SDS011;6573;57.696;11.950;2023-04-24T08:05:14;13.60;;;9.53;;
13014;SDS011;6573;57.696;11.950;2023-04-24T08:07:43;14.43;;;11.87;;
13014;SDS011;6573;57.696;11.950;2023-04-24T08:10:15;12.80;;;9.83;;
13014;SDS011;6573;57.696;11.950;2023-04-24T08:12:43;17.40;;;10.57;;
13014;SDS011;6573;57.696;11.950;2023-04-24T08:15:12;12.80;;;9.40;;
13014;SDS011;6573;57.696;11.950;2023-04-24T08:17:40;12.07;;;10.03;;
13014;SDS011;6573;57.696;11.950;2023-04-24T08:20:10;14.93;;;13.17;;
13014;SDS011;6573;57.696;11.950;2023-04-24T08:22:40;14.80;;;12.70;;
13014;SDS011;6573;57.696;11.950;2023-04-24T08:25:08;13.67;;;12.27;;
13014;SDS011;6573;57.696;11.950;2023-04-24T08:27:37;12.43;;;9.80;;
13014;SDS011;6573;57.696;11.950;2023-04-24T08:30:06;11.53;;;9.17;;
13014;SDS011;6573;57.696;11.950;2023-04-24T08:32:36;10.80;;;8.87;;
13014;SDS011;6573;57.696;11.950;2023-04-24T08:35:04;13.27;;;11.17;;
13014;SDS011;6573;57.696;11.950;2023-04-24T08:37:37;12.70;;;9.50;;
13014;SDS011;6573;57.696;11.950;2023-04-24T08:40:06;10.97;;;8.57;;
13014;SDS011;6573;57.696;11.950;2023-04-24T08:42:42;10.97;;;8.67;;
13014;SDS011;6573;57.696;11.950;2023-04-24T08:45:11;12.30;;;10.83;;
13014;SDS011;6573;57.696;11.950;2023-04-24T08:47:40;12.63;;;11.13;;
13014;SDS011;6573;57.696;11.950;2023-04-24T08:50:10;12.67;;;10.87;;
13014;SDS011;6573;57.696;11.950;2023-04-24T08:52:40;12.07;;;7.50;;
13014;SDS011;6573;57.696;11.950;2023-04-24T08:55:09;10.43;;;7.97;;
13014;SDS011;6573;57.696;11.950;2023-04-24T08:57:38;11.60;;;9.33;;
13014;SDS011;6573;57.696;11.950;2023-04-24T09:00:07;8.90;;;6.03;;
13014;SDS011;6573;57.696;11.950;2023-04-24T09:02:39;8.70;;;7.60;;
13014;SDS011;6573;57.696;11.950;2023-04-24T09:05:10;10.13;;;7.27;;
13014;SDS011;6573;57.696;11.950;2023-04-24T09:07:38;9.83;;;7.70;;
13014;SDS011;6573;57.696;11.950;2023-04-24T09:10:11;6.80;;;4.77;;
13014;SDS011;6573;57.696;11.950;2023-04-24T09:12:40;8.53;;;5.43;;
13014;SDS011;6573;57.696;11.950;2023-04-24T09:15:09;9.53;;;5.50;;
13014;SDS011;6573;57.696;11.950;2023-04-24T09:17:38;6.77;;;4.50;;
13014;SDS011;6573;57.696;11.950;2023-04-24T09:20:07;6.93;;;4.80;;
13014;SDS011;6573;57.696;11.950;2023-04-24T09:22:36;8.37;;;5.13;;
13014;SDS011;6573;57.696;11.950;2023-04-24T09:25:07;6.67;;;5.73;;
13014;SDS011;6573;57.696;11.950;2023-04-24T09:27:41;8.70;;;6.03;;
13014;SDS011;6573;57.696;11.950;2023-04-24T09:30:11;7.40;;;5.97;;
13014;SDS011;6573;57.696;11.950;2023-04-24T09:32:41;8.53;;;5.87;;
13014;SDS011;6573;57.696;11.950;2023-04-24T09:35:10;7.90;;;5.60;;
13014;SDS011;6573;57.696;11.950;2023-04-24T09:37:40;9.87;;;5.63;;
13014;SDS011;6573;57.696;11.950;2023-04-24T09:40:12;8.20;;;6.00;;
13014;SDS011;6573;57.696;11.950;2023-04-24T09:42:43;6.87;;;6.03;;
13014;SDS011;6573;57.696;11.950;2023-04-24T09:45:13;9.03;;;6.00;;
13014;SDS011;6573;57.696;11.950;2023-04-24T09:47:41;10.07;;;6.00;;
13014;SDS011;6573;57.696;11.950;2023-04-24T09:50:11;7.67;;;5.73;;
13014;SDS011;6573;57.696;11.950;2023-04-24T09:52:43;7.83;;;5.93;;
13014;SDS011;6573;57.696;11.950;2023-04-24T09:55:15;9.03;;;5.93;;
13014;SDS011;6573;57.696;11.950;2023-04-24T09:57:51;9.23;;;6.10;;
13014;SDS011;6573;57.696;11.950;2023-04-24T10:00:24;7.17;;;6.20;;
13014;SDS011;6573;57.696;11.950;2023-04-24T10:02:54;7.20;;;5.97;;
13014;SDS011;6573;57.696;11.950;2023-04-24T10:05:24;10.07;;;6.47;;
13014;SDS011;6573;57.696;11.950;2023-04-24T10:08:01;8.23;;;5.87;;
13014;SDS011;6573;57.696;11.950;2023-04-24T10:10:32;8.10;;;6.20;;
13014;SDS011;6573;57.696;11.950;2023-04-24T10:13:08;9.13;;;6.90;;
13014;SDS011;6573;57.696;11.950;2023-04-24T10:15:37;9.43;;;6.67;;
13014;SDS011;6573;57.696;11.950;2023-04-24T10:18:07;6.93;;;5.77;;
13014;SDS011;6573;57.696;11.950;2023-04-24T10:20:37;8.77;;;6.40;;
13014;SDS011;6573;57.696;11.950;2023-04-24T10:23:08;7.10;;;5.80;;
13014;SDS011;6573;57.696;11.950;2023-04-24T10:25:38;7.50;;;6.33;;
13014;SDS011;6573;57.696;11.950;2023-04-24T10:28:07;9.07;;;6.40;;
13014;SDS011;6573;57.696;11.950;2023-04-24T10:30:36;8.37;;;6.40;;
13014;SDS011;6573;57.696;11.950;2023-04-24T10:33:05;7.60;;;6.40;;
13014;SDS011;6573;57.696;11.950;2023-04-24T10:35:37;9.70;;;6.60;;
13014;SDS011;6573;57.696;11.950;2023-04-24T10:38:09;9.37;;;6.27;;
13014;SDS011;6573;57.696;11.950;2023-04-24T10:40:41;7.40;;;5.70;;
13014;SDS011;6573;57.696;11.950;2023-04-24T10:43:10;9.00;;;6.40;;
13014;SDS011;6573;57.696;11.950;2023-04-24T10:45:59;8.23;;;6.57;;
13014;SDS011;6573;57.696;11.950;2023-04-24T10:48:28;7.90;;;6.00;;
13014;SDS011;6573;57.696;11.950;2023-04-24T10:50:57;7.70;;;6.43;;
13014;SDS011;6573;57.696;11.950;2023-04-24T10:53:27;6.63;;;5.60;;
13014;SDS011;6573;57.696;11.950;2023-04-24T10:56:03;8.13;;;5.33;;
13014;SDS011;6573;57.696;11.950;2023-04-24T10:58:36;7.33;;;6.03;;
13014;SDS011;6573;57.696;11.950;2023-04-24T11:01:06;6.30;;;5.13;;
13014;SDS011;6573;57.696;11.950;2023-04-24T11:03:35;7.70;;;6.17;;
13014;SDS011;6573;57.696;11.950;2023-04-24T11:06:05;7.77;;;5.70;;
13014;SDS011;6573;57.696;11.950;2023-04-24T11:08:37;5.93;;;5.23;;
13014;SDS011;6573;57.696;11.950;2023-04-24T11:11:11;6.40;;;4.90;;
13014;SDS011;6573;57.696;11.950;2023-04-24T11:16:50;6.60;;;5.17;;
13014;SDS011;6573;57.696;11.950;2023-04-24T11:19:23;6.87;;;5.20;;
13014;SDS011;6573;57.696;11.950;2023-04-24T11:21:56;5.93;;;5.10;;
13014;SDS011;6573;57.696;11.950;2023-04-24T11:24:32;6.17;;;5.33;;
13014;SDS011;6573;57.696;11.950;2023-04-24T11:27:07;5.50;;;4.90;;
13014;SDS011;6573;57.696;11.950;2023-04-24T11:29:42;6.57;;;5.37;;
13014;SDS011;6573;57.696;11.950;2023-04-24T11:35:03;5.13;;;4.40;;
13014;SDS011;6573;57.696;11.950;2023-04-24T11:37:33;6.77;;;5.40;;
13014;SDS011;6573;57.696;11.950;2023-04-24T11:40:04;6.43;;;4.87;;
13014;SDS011;6573;57.696;11.950;2023-04-24T11:42:35;5.03;;;4.10;;
13014;SDS011;6573;57.696;11.950;2023-04-24T11:45:07;7.10;;;6.07;;
13014;SDS011;6573;57.696;11.950;2023-04-24T11:47:36;5.47;;;4.80;;
13014;SDS011;6573;57.696;11.950;2023-04-24T11:50:05;6.60;;;4.93;;
13014;SDS011;6573;57.696;11.950;2023-04-24T11:52:36;6.80;;;4.83;;
13014;SDS011;6573;57.696;11.950;2023-04-24T11:55:06;6.33;;;4.80;;
13014;SDS011;6573;57.696;11.950;2023-04-24T11:57:37;7.80;;;5.87;;
13014;SDS011;6573;57.696;11.950;2023-04-24T12:00:06;5.30;;;4.80;;
13014;SDS011;6573;57.696;11.950;2023-04-24T12:02:36;6.40;;;4.53;;
13014;SDS011;6573;57.696;11.950;2023-04-24T12:05:06;5.00;;;4.33;;
13014;SDS011;6573;57.696;11.950;2023-04-24T12:07:39;6.63;;;4.20;;
13014;SDS011;6573;57.696;11.950;2023-04-24T12:10:09;7.57;;;4.67;;
13014;SDS011;6573;57.696;11.950;2023-04-24T12:12:39;4.43;;;3.97;;
13014;SDS011;6573;57.696;11.950;2023-04-24T12:15:08;4.47;;;3.83;;
13014;SDS011;6573;57.696;11.950;2023-04-24T12:17:40;7.03;;;4.10;;
13014;SDS011;6573;57.696;11.950;2023-04-24T12:20:09;3.70;;;3.40;;
13014;SDS011;6573;57.696;11.950;2023-04-24T12:22:45;4.60;;;3.83;;
13014;SDS011;6573;57.696;11.950;2023-04-24T12:25:15;5.27;;;3.67;;
13014;SDS011;6573;57.696;11.950;2023-04-24T12:27:45;6.07;;;4.27;;
13014;SDS011;6573;57.696;11.950;2023-04-24T12:30:15;4.93;;;3.60;;
13014;SDS011;6573;57.696;11.950;2023-04-24T12:32:45;4.60;;;3.83;;
13014;SDS011;6573;57.696;11.950;2023-04-24T12:35:18;6.13;;;3.40;;
13014;SDS011;6573;57.696;11.950;2023-04-24T12:37:48;6.37;;;3.37;;
13014;SDS011;6573;57.696;11.950;2023-04-24T12:40:17;3.80;;;3.20;;
13014;SDS011;6573;57.696;11.950;2023-04-24T12:42:50;5.73;;;3.10;;
13014;SDS011;6573;57.696;11.950;2023-04-24T12:45:23;4.40;;;3.00;;
13014;SDS011;6573;57.696;11.950;2023-04-24T12:47:54;5.87;;;3.50;;
13014;SDS011;6573;57.696;11.950;2023-04-24T12:50:23;3.90;;;3.30;;
13014;SDS011;6573;57.696;11.950;2023-04-24T12:52:51;7.53;;;3.17;;
13014;SDS011;6573;57.696;11.950;2023-04-24T12:55:20;3.97;;;3.30;;
13014;SDS011;6573;57.696;11.950;2023-04-24T12:57:50;5.30;;;3.20;;
13014;SDS011;6573;57.696;11.950;2023-04-24T13:00:18;3.53;;;3.00;;
13014;SDS011;6573;57.696;11.950;2023-04-24T13:02:46;8.83;;;3.60;;
13014;SDS011;6573;57.696;11.950;2023-04-24T13:05:15;3.83;;;3.20;;
13014;SDS011;6573;57.696;11.950;2023-04-24T13:07:43;3.63;;;3.30;;
13014;SDS011;6573;57.696;11.950;2023-04-24T13:10:12;4.97;;;3.20;;
13014;SDS011;6573;57.696;11.950;2023-04-24T13:12:40;3.33;;;3.00;;
13014;SDS011;6573;57.696;11.950;2023-04-24T13:15:13;7.53;;;3.63;;
13014;SDS011;6573;57.696;11.950;2023-04-24T13:17:42;5.90;;;3.07;;
13014;SDS011;6573;57.696;11.950;2023-04-24T13:20:10;5.07;;;3.33;;
13014;SDS011;6573;57.696;11.950;2023-04-24T13:22:38;4.63;;;3.13;;
13014;SDS011;6573;57.696;11.950;2023-04-24T13:25:07;4.63;;;3.00;;
13014;SDS011;6573;57.696;11.950;2023-04-24T13:27:37;3.67;;;3.13;;
13014;SDS011;6573;57.696;11.950;2023-04-24T13:30:06;3.60;;;3.30;;
13014;SDS011;6573;57.696;11.950;2023-04-24T13:32:37;4.23;;;3.27;;
13014;SDS011;6573;57.696;11.950;2023-04-24T13:35:06;3.90;;;3.43;;
13014;SDS011;6573;57.696;11.950;2023-04-24T13:37:35;4.63;;;3.77;;
13014;SDS011;6573;57.696;11.950;2023-04-24T13:40:04;4.07;;;3.43;;
13014;SDS011;6573;57.696;11.950;2023-04-24T13:42:33;7.27;;;3.50;;
13014;SDS011;6573;57.696;11.950;2023-04-24T13:45:01;4.77;;;3.97;;
13014;SDS011;6573;57.696;11.950;2023-04-24T13:47:52;4.33;;;3.77;;
13014;SDS011;6573;57.696;11.950;2023-04-24T13:50:21;5.30;;;3.90;;
13014;SDS011;6573;57.696;11.950;2023-04-24T13:52:49;5.23;;;3.70;;
13014;SDS011;6573;57.696;11.950;2023-04-24T13:55:17;4.97;;;4.20;;
13014;SDS011;6573;57.696;11.950;2023-04-24T13:57:46;5.17;;;3.83;;
13014;SDS011;6573;57.696;11.950;2023-04-24T14:00:15;7.00;;;4.20;;
13014;SDS011;6573;57.696;11.950;2023-04-24T14:02:44;5.10;;;4.07;;
13014;SDS011;6573;57.696;11.950;2023-04-24T14:05:14;6.57;;;4.07;;
13014;SDS011;6573;57.696;11.950;2023-04-24T14:07:42;5.67;;;4.70;;
13014;SDS011;6573;57.696;11.950;2023-04-24T14:10:10;6.40;;;4.60;;
13014;SDS011;6573;57.696;11.950;2023-04-24T14:12:39;4.40;;;3.90;;
13014;SDS011;6573;57.696;11.950;2023-04-24T14:15:07;9.93;;;4.53;;
13014;SDS011;6573;57.696;11.950;2023-04-24T14:17:36;6.83;;;5.13;;
13014;SDS011;6573;57.696;11.950;2023-04-24T14:20:05;12.63;;;6.72;;
13014;SDS011;6573;57.696;11.950;2023-04-24T14:22:37;6.13;;;5.53;;
13014;SDS011;6573;57.696;11.950;2023-04-24T14:25:05;8.13;;;5.73;;
13014;SDS011;6573;57.696;11.950;2023-04-24T14:27:34;9.27;;;5.53;;
13014;SDS011;6573;57.696;11.950;2023-04-24T14:30:02;8.83;;;5.60;;
13014;SDS011;6573;57.696;11.950;2023-04-24T14:32:32;9.43;;;5.77;;
13014;SDS011;6573;57.696;11.950;2023-04-24T14:35:00;8.47;;;5.20;;
13014;SDS011;6573;57.696;11.950;2023-04-24T14:37:28;7.57;;;5.23;;
13014;SDS011;6573;57.696;11.950;2023-04-24T14:39:58;6.30;;;4.80;;
13014;SDS011;6573;57.696;11.950;2023-04-24T14:42:32;8.10;;;5.03;;
13014;SDS011;6573;57.696;11.950;2023-04-24T14:45:01;8.00;;;4.97;;
13014;SDS011;6573;57.696;11.950;2023-04-24T14:47:30;7.47;;;4.63;;
13014;SDS011;6573;57.696;11.950;2023-04-24T14:49:58;10.03;;;5.33;;
13014;SDS011;6573;57.696;11.950;2023-04-24T14:52:27;6.63;;;5.47;;